createdAt,value
2023-04-22T00:00:09.560Z,4.58
2023-04-22T00:02:57.331Z,4.57
2023-04-22T00:05:25.003Z,4.57
2023-04-22T00:07:52.885Z,4.46
2023-04-22T00:10:20.376Z,4.40
2023-04-22T00:12:48.163Z,4.40
2023-04-22T00:15:15.515Z,4.39
2023-04-22T00:17:43.458Z,4.36
2023-04-22T00:20:11.592Z,4.37
2023-04-22T00:22:39.577Z,4.37
2023-04-22T00:25:07.568Z,4.38
2023-04-22T00:27:35.197Z,4.36
2023-04-22T00:30:02.841Z,4.34
2023-04-22T00:32:30.602Z,4.33
2023-04-22T00:34:57.998Z,4.30
2023-04-22T00:37:26.048Z,4.27
2023-04-22T00:39:53.512Z,4.21
2023-04-22T00:42:21.996Z,4.15
2023-04-22T00:44:50.086Z,4.15
2023-04-22T00:47:18.189Z,4.09
2023-04-22T00:49:45.957Z,4.10
2023-04-22T00:52:13.539Z,4.09
2023-04-22T00:54:40.916Z,4.07
2023-04-22T00:57:09.010Z,4.03
2023-04-22T00:59:36.415Z,4.03
2023-04-22T01:02:04.555Z,4.03
2023-04-22T01:04:32.264Z,3.98
2023-04-22T01:07:01.270Z,3.94
2023-04-22T01:09:28.742Z,3.89
2023-04-22T01:11:56.688Z,3.86
2023-04-22T01:14:24.510Z,3.82
2023-04-22T01:16:56.465Z,3.83
2023-04-22T01:19:24.176Z,3.82
2023-04-22T01:21:52.437Z,3.79
2023-04-22T01:24:19.762Z,3.74
2023-04-22T01:26:48.527Z,3.73
2023-04-22T01:29:16.056Z,3.71
2023-04-22T01:31:43.813Z,3.67
2023-04-22T01:34:11.876Z,3.62
2023-04-22T01:36:39.893Z,3.58
2023-04-22T01:39:08.283Z,3.52
2023-04-22T01:41:36.102Z,3.48
2023-04-22T01:44:05.038Z,3.45
2023-04-22T01:46:33.890Z,3.42
2023-04-22T01:49:01.353Z,3.38
2023-04-22T01:51:29.036Z,3.32
2023-04-22T01:53:56.955Z,3.33
2023-04-22T01:56:24.888Z,3.31
2023-04-22T01:58:52.208Z,3.26
2023-04-22T02:01:20.581Z,3.23
2023-04-22T02:03:48.022Z,3.26
2023-04-22T02:06:15.845Z,3.27
2023-04-22T02:08:43.295Z,3.25
2023-04-22T02:11:10.964Z,3.27
2023-04-22T02:13:39.708Z,3.21
2023-04-22T02:16:08.003Z,3.23
2023-04-22T02:18:35.606Z,3.18
2023-04-22T02:21:03.697Z,3.18
2023-04-22T02:23:31.376Z,3.13
2023-04-22T02:25:59.137Z,3.10
2023-04-22T02:28:26.525Z,3.09
2023-04-22T02:30:54.291Z,3.02
2023-04-22T02:33:23.577Z,3.06
2023-04-22T02:35:52.951Z,3.06
2023-04-22T02:38:20.323Z,3.01
2023-04-22T02:40:47.993Z,3.00
2023-04-22T02:43:15.384Z,2.96
2023-04-22T02:45:43.093Z,2.97
2023-04-22T02:48:10.691Z,2.95
2023-04-22T02:50:38.358Z,2.95
2023-04-22T02:53:05.756Z,2.85
2023-04-22T02:55:33.352Z,2.84
2023-04-22T02:58:00.744Z,2.75
2023-04-22T03:00:28.466Z,2.75
2023-04-22T03:02:56.397Z,2.74
2023-04-22T03:05:30.576Z,2.71
2023-04-22T03:07:58.189Z,2.64
2023-04-22T03:10:25.704Z,2.67
2023-04-22T03:12:53.320Z,2.65
2023-04-22T03:15:22.035Z,2.65
2023-04-22T03:17:49.997Z,2.64
2023-04-22T03:20:20.362Z,2.63
2023-04-22T03:22:48.173Z,2.61
2023-04-22T03:25:17.243Z,2.59
2023-04-22T03:27:50.846Z,2.57
2023-04-22T03:30:19.083Z,2.54
2023-04-22T03:32:47.854Z,2.53
2023-04-22T03:35:26.187Z,2.51
2023-04-22T03:37:54.925Z,2.49
2023-04-22T03:40:27.866Z,2.54
2023-04-22T03:42:55.799Z,2.53
2023-04-22T03:45:23.995Z,2.55
2023-04-22T03:48:09.691Z,2.49
2023-04-22T03:50:43.338Z,2.61
2023-04-22T03:53:10.880Z,2.61
2023-04-22T03:55:39.849Z,2.69
2023-04-22T03:58:07.240Z,2.70
2023-04-22T04:00:35.433Z,2.78
2023-04-22T04:03:15.155Z,2.82
2023-04-22T04:05:43.823Z,2.86
2023-04-22T04:08:11.358Z,2.93
2023-04-22T04:10:39.151Z,3.00
2023-04-22T04:13:06.828Z,3.06
2023-04-22T04:15:45.167Z,3.14
2023-04-22T04:18:14.087Z,3.17
2023-04-22T04:20:42.712Z,3.22
2023-04-22T04:23:10.250Z,3.29
2023-04-22T04:25:39.228Z,3.42
2023-04-22T04:28:11.466Z,3.55
2023-04-22T04:30:41.784Z,3.69
2023-04-22T04:33:10.274Z,3.82
2023-04-22T04:35:39.676Z,4.01
2023-04-22T04:38:08.624Z,4.25
2023-04-22T04:40:37.328Z,4.44
2023-04-22T04:43:17.670Z,4.69
2023-04-22T04:45:53.681Z,4.98
2023-04-22T04:48:28.171Z,5.38
2023-04-22T04:51:02.792Z,5.75
2023-04-22T04:53:33.369Z,6.23
2023-04-22T04:56:02.048Z,6.65
2023-04-22T04:58:30.947Z,7.05
2023-04-22T05:01:24.715Z,7.37
2023-04-22T05:03:53.364Z,7.63
2023-04-22T05:06:21.752Z,7.96
2023-04-22T05:08:57.265Z,8.29
2023-04-22T05:11:24.785Z,8.56
2023-04-22T05:13:53.276Z,8.98
2023-04-22T05:16:27.516Z,9.29
2023-04-22T05:18:55.389Z,9.60
2023-04-22T05:21:24.566Z,9.69
2023-04-22T05:23:51.904Z,10.08
2023-04-22T05:26:20.699Z,10.59
2023-04-22T05:28:50.158Z,10.79
2023-04-22T05:31:19.149Z,11.10
2023-04-22T05:33:47.484Z,11.51
2023-04-22T05:36:15.291Z,11.99
2023-04-22T05:38:44.219Z,12.29
2023-04-22T05:41:11.814Z,12.53
2023-04-22T05:43:39.144Z,12.76
2023-04-22T05:46:15.390Z,12.93
2023-04-22T05:48:44.227Z,13.41
2023-04-22T05:51:29.133Z,13.94
2023-04-22T05:53:56.604Z,14.23
2023-04-22T05:56:24.147Z,14.08
2023-04-22T05:58:51.376Z,14.20
2023-04-22T06:01:22.678Z,14.45
2023-04-22T06:03:59.848Z,14.62
2023-04-22T06:06:27.746Z,14.75
2023-04-22T06:08:55.125Z,14.72
2023-04-22T06:11:22.769Z,15.02
2023-04-22T06:13:50.112Z,15.12
2023-04-22T06:16:18.306Z,15.39
2023-04-22T06:18:46.085Z,15.56
2023-04-22T06:21:13.815Z,15.65
2023-04-22T06:23:41.271Z,15.79
2023-04-22T06:26:09.193Z,15.97
2023-04-22T06:28:37.736Z,16.05
2023-04-22T06:31:11.011Z,16.27
2023-04-22T06:33:38.809Z,16.52
2023-04-22T06:36:07.161Z,16.19
2023-04-22T06:38:36.318Z,16.11
2023-04-22T06:41:22.961Z,16.38
2023-04-22T06:43:53.028Z,16.69
2023-04-22T06:46:40.065Z,16.85
2023-04-22T06:49:25.855Z,16.91
2023-04-22T06:51:58.872Z,16.89
2023-04-22T06:54:26.293Z,17.15
2023-04-22T06:56:55.033Z,17.24
2023-04-22T06:59:22.574Z,17.38
2023-04-22T07:01:50.289Z,17.38
2023-04-22T07:04:17.713Z,17.08
2023-04-22T07:06:46.047Z,16.95
2023-04-22T07:09:13.757Z,17.18
2023-04-22T07:11:41.459Z,17.28
2023-04-22T07:14:17.596Z,17.36
2023-04-22T07:16:45.406Z,17.45
2023-04-22T07:19:12.776Z,17.94
2023-04-22T07:21:40.599Z,18.04
2023-04-22T07:24:12.218Z,18.00
2023-04-22T07:26:45.482Z,18.04
2023-04-22T07:29:13.218Z,18.22
2023-04-22T07:31:40.949Z,18.26
2023-04-22T07:34:09.427Z,18.37
2023-04-22T07:36:37.437Z,18.37
2023-04-22T07:39:04.671Z,18.42
2023-04-22T07:41:32.304Z,18.57
2023-04-22T07:44:00.159Z,18.76
2023-04-22T07:46:27.962Z,18.77
2023-04-22T07:48:55.571Z,18.83
2023-04-22T07:51:23.151Z,18.74
2023-04-22T07:53:50.595Z,18.69
2023-04-22T07:56:18.268Z,18.64
2023-04-22T07:58:45.700Z,19.00
2023-04-22T08:01:13.247Z,19.04
2023-04-22T08:03:40.969Z,19.14
2023-04-22T08:06:08.771Z,19.15
2023-04-22T08:08:35.969Z,18.94
2023-04-22T08:11:03.875Z,19.16
2023-04-22T08:13:31.401Z,19.29
2023-04-22T08:16:00.679Z,19.35
2023-04-22T08:18:27.867Z,19.33
2023-04-22T08:20:55.928Z,19.26
2023-04-22T08:23:23.566Z,19.32
2023-04-22T08:25:51.659Z,19.61
2023-04-22T08:28:19.095Z,19.69
2023-04-22T08:30:47.012Z,19.65
2023-04-22T08:33:14.322Z,19.75
2023-04-22T08:35:42.577Z,20.02
2023-04-22T08:38:10.084Z,20.18
2023-04-22T08:40:41.297Z,20.27
2023-04-22T08:43:09.418Z,20.18
2023-04-22T08:45:39.108Z,20.17
2023-04-22T08:48:09.375Z,19.88
2023-04-22T08:50:39.531Z,19.86
2023-04-22T08:53:07.047Z,20.01
2023-04-22T08:55:35.689Z,20.08
2023-04-22T08:58:04.630Z,20.11
2023-04-22T09:00:34.693Z,19.96
2023-04-22T09:03:03.464Z,19.93
2023-04-22T09:05:33.257Z,19.84
2023-04-22T09:08:00.561Z,20.01
2023-04-22T09:10:28.820Z,19.92
2023-04-22T09:12:57.106Z,19.44
2023-04-22T09:15:25.686Z,19.34
2023-04-22T09:17:53.134Z,19.39
2023-04-22T09:20:26.687Z,19.37
2023-04-22T09:22:55.478Z,19.38
2023-04-22T09:25:25.510Z,19.44
2023-04-22T09:27:56.905Z,19.54
2023-04-22T09:30:32.570Z,19.24
2023-04-22T09:33:01.832Z,19.26
2023-04-22T09:35:31.505Z,19.45
2023-04-22T09:38:00.665Z,19.60
2023-04-22T09:40:29.883Z,19.61
2023-04-22T09:42:59.016Z,19.76
2023-04-22T09:45:34.971Z,19.85
2023-04-22T09:48:23.836Z,19.65
2023-04-22T09:50:52.297Z,19.61
2023-04-22T09:53:21.433Z,19.46
2023-04-22T09:55:55.900Z,19.26
2023-04-22T09:58:28.042Z,19.33
2023-04-22T10:00:59.275Z,19.30
2023-04-22T10:03:26.800Z,19.38
2023-04-22T10:05:54.365Z,19.61
2023-04-22T10:08:21.772Z,19.67
2023-04-22T10:10:49.718Z,19.82
2023-04-22T10:13:17.101Z,19.72
2023-04-22T10:15:52.419Z,19.85
2023-04-22T10:18:23.324Z,19.91
2023-04-22T10:20:51.763Z,19.83
2023-04-22T10:23:21.231Z,19.84
2023-04-22T10:25:51.506Z,19.70
2023-04-22T10:28:21.456Z,19.62
2023-04-22T10:30:49.219Z,19.56
2023-04-22T10:33:27.674Z,19.58
2023-04-22T10:36:18.149Z,19.57
2023-04-22T10:38:57.780Z,19.51
2023-04-22T10:41:29.764Z,19.49
2023-04-22T10:43:59.442Z,19.42
2023-04-22T10:46:33.255Z,19.40
2023-04-22T10:49:07.521Z,19.52
2023-04-22T10:51:45.966Z,19.33
2023-04-22T10:54:32.599Z,19.37
2023-04-22T10:57:02.313Z,19.38
2023-04-22T10:59:30.778Z,19.42
2023-04-22T11:02:12.627Z,19.43
2023-04-22T11:04:43.188Z,19.51
2023-04-22T11:07:22.946Z,19.56
2023-04-22T11:09:52.021Z,19.49
2023-04-22T11:12:44.908Z,19.42
2023-04-22T11:15:15.270Z,19.54
2023-04-22T11:17:45.019Z,19.58
2023-04-22T11:20:13.408Z,19.61
2023-04-22T11:23:07.433Z,19.66
2023-04-22T11:25:34.811Z,19.77
2023-04-22T11:28:02.759Z,19.70
2023-04-22T11:30:31.585Z,19.66
2023-04-22T11:33:00.951Z,19.80
2023-04-22T11:35:33.189Z,19.76
2023-04-22T11:38:02.912Z,19.77
2023-04-22T11:40:38.130Z,19.63
2023-04-22T11:43:08.968Z,19.63
2023-04-22T11:45:38.278Z,19.75
2023-04-22T11:48:07.856Z,19.89
2023-04-22T11:50:37.256Z,19.89
2023-04-22T11:53:13.212Z,19.89
2023-04-22T11:55:41.286Z,19.88
2023-04-22T11:58:11.076Z,19.77
2023-04-22T12:00:50.609Z,19.83
2023-04-22T12:03:20.461Z,19.85
2023-04-22T12:05:59.459Z,19.93
2023-04-22T12:08:32.146Z,19.94
2023-04-22T12:11:01.624Z,19.93
2023-04-22T12:13:31.562Z,19.75
2023-04-22T12:16:02.394Z,19.70
2023-04-22T12:18:31.342Z,19.80
2023-04-22T12:21:04.505Z,19.87
2023-04-22T12:23:44.056Z,19.92
2023-04-22T12:26:13.041Z,19.97
2023-04-22T12:28:41.358Z,19.94
2023-04-22T12:31:09.440Z,20.11
2023-04-22T12:33:38.058Z,20.01
2023-04-22T12:36:06.189Z,19.92
2023-04-22T12:38:33.857Z,20.03
2023-04-22T12:41:01.998Z,20.08
2023-04-22T12:43:29.669Z,20.07
2023-04-22T12:45:56.892Z,19.97
2023-04-22T12:48:24.320Z,19.63
2023-04-22T12:50:51.466Z,19.52
2023-04-22T12:53:20.879Z,19.44
2023-04-22T12:55:48.277Z,19.45
2023-04-22T12:58:16.009Z,19.50
2023-04-22T13:00:43.125Z,19.65
2023-04-22T13:03:11.370Z,19.89
2023-04-22T13:05:40.005Z,19.79
2023-04-22T13:08:08.308Z,19.74
2023-04-22T13:10:36.138Z,19.87
2023-04-22T13:15:39.179Z,19.91
2023-04-22T13:18:06.767Z,20.07
2023-04-22T13:20:34.193Z,20.15
2023-04-22T13:23:02.438Z,19.92
2023-04-22T13:25:29.711Z,19.94
2023-04-22T13:27:57.107Z,19.96
2023-04-22T13:30:24.371Z,19.95
2023-04-22T13:32:52.069Z,20.01
2023-04-22T13:35:19.464Z,20.15
2023-04-22T13:37:47.231Z,20.24
2023-04-22T13:40:14.465Z,20.28
2023-04-22T13:42:42.088Z,20.36
2023-04-22T13:45:09.942Z,20.44
2023-04-22T13:47:37.433Z,20.54
2023-04-22T13:50:06.429Z,20.62
2023-04-22T13:52:34.131Z,20.65
2023-04-22T13:55:03.074Z,20.76
2023-04-22T13:57:30.701Z,20.82
2023-04-22T13:59:57.846Z,20.62
2023-04-22T14:02:25.301Z,20.45
2023-04-22T14:04:52.889Z,20.27
2023-04-22T14:07:20.382Z,20.11
2023-04-22T14:09:47.699Z,19.84
2023-04-22T14:12:15.234Z,19.75
2023-04-22T14:14:42.609Z,19.70
2023-04-22T14:17:10.167Z,19.64
2023-04-22T14:19:39.404Z,19.59
2023-04-22T14:22:07.082Z,19.53
2023-04-22T14:24:34.259Z,19.60
2023-04-22T14:27:01.995Z,19.61
2023-04-22T14:29:30.019Z,19.66
2023-04-22T14:31:58.132Z,19.79
2023-04-22T14:34:26.966Z,19.80
2023-04-22T14:36:54.761Z,19.78
2023-04-22T14:39:22.030Z,19.96
2023-04-22T14:41:49.635Z,19.95
2023-04-22T14:44:17.355Z,19.89
2023-04-22T14:46:45.430Z,19.85
2023-04-22T14:49:12.735Z,19.84
2023-04-22T14:51:40.370Z,19.79
2023-04-22T14:54:07.708Z,19.80
2023-04-22T14:56:36.176Z,19.77
2023-04-22T14:59:03.385Z,19.91
2023-04-22T15:01:32.066Z,19.96
2023-04-22T15:03:59.315Z,19.95
2023-04-22T15:06:28.388Z,20.06
2023-04-22T15:08:56.025Z,20.11
2023-04-22T15:11:23.584Z,20.12
2023-04-22T15:13:50.781Z,20.15
2023-04-22T15:16:18.288Z,20.13
2023-04-22T15:18:45.514Z,20.13
2023-04-22T15:21:13.275Z,20.13
2023-04-22T15:23:40.503Z,20.05
2023-04-22T15:26:07.903Z,20.00
2023-04-22T15:28:34.994Z,20.01
2023-04-22T15:31:02.650Z,19.97
2023-04-22T15:33:29.821Z,19.89
2023-04-22T15:35:57.157Z,20.01
2023-04-22T15:38:24.819Z,19.97
2023-04-22T15:40:52.229Z,19.97
2023-04-22T15:43:19.525Z,19.85
2023-04-22T15:45:47.258Z,19.78
2023-04-22T15:48:14.319Z,19.70
2023-04-22T15:50:41.736Z,19.62
2023-04-22T15:53:09.253Z,19.64
2023-04-22T15:55:36.681Z,19.65
2023-04-22T15:58:04.141Z,19.59
2023-04-22T16:00:31.545Z,19.60
2023-04-22T16:02:58.917Z,19.59
2023-04-22T16:05:26.592Z,19.58
2023-04-22T16:07:54.259Z,19.62
2023-04-22T16:10:21.938Z,19.39
2023-04-22T16:12:49.389Z,19.50
2023-04-22T16:15:17.834Z,19.46
2023-04-22T16:17:45.197Z,19.48
2023-04-22T16:20:12.874Z,19.48
2023-04-22T16:22:40.154Z,19.48
2023-04-22T16:25:08.575Z,19.50
2023-04-22T16:27:35.923Z,19.51
2023-04-22T16:30:03.797Z,19.54
2023-04-22T16:32:31.387Z,19.65
2023-04-22T16:34:58.938Z,19.74
2023-04-22T16:37:27.103Z,19.78
2023-04-22T16:39:54.633Z,19.74
2023-04-22T16:42:21.901Z,19.85
2023-04-22T16:44:49.576Z,19.95
2023-04-22T16:47:16.674Z,19.98
2023-04-22T16:49:44.158Z,19.96
2023-04-22T16:52:11.407Z,19.94
2023-04-22T16:54:39.019Z,19.89
2023-04-22T16:57:07.641Z,19.73
2023-04-22T16:59:35.229Z,19.59
2023-04-22T17:02:03.033Z,19.48
2023-04-22T17:04:31.036Z,19.33
2023-04-22T17:06:58.280Z,19.15
2023-04-22T17:09:25.653Z,18.99
2023-04-22T17:11:52.897Z,18.77
2023-04-22T17:14:20.311Z,18.60
2023-04-22T17:16:47.498Z,18.30
2023-04-22T17:19:15.052Z,18.02
2023-04-22T17:21:42.696Z,17.84
2023-04-22T17:24:10.018Z,17.70
2023-04-22T17:26:37.691Z,17.53
2023-04-22T17:29:05.709Z,17.36
2023-04-22T17:31:34.282Z,17.15
2023-04-22T17:34:02.029Z,16.97
2023-04-22T17:36:29.330Z,16.79
2023-04-22T17:38:56.790Z,16.57
2023-04-22T17:41:24.185Z,16.34
2023-04-22T17:43:51.806Z,16.19
2023-04-22T17:46:19.047Z,15.90
2023-04-22T17:48:46.886Z,15.79
2023-04-22T17:51:14.225Z,15.58
2023-04-22T17:53:42.112Z,15.37
2023-04-22T17:56:09.258Z,15.13
2023-04-22T17:58:39.667Z,14.98
2023-04-22T18:01:07.387Z,14.81
2023-04-22T18:03:35.393Z,14.63
2023-04-22T18:06:02.858Z,14.42
2023-04-22T18:08:30.846Z,14.15
2023-04-22T18:10:58.166Z,13.94
2023-04-22T18:13:25.590Z,13.79
2023-04-22T18:15:53.043Z,13.54
2023-04-22T18:18:20.563Z,13.37
2023-04-22T18:20:47.954Z,13.21
2023-04-22T18:23:15.389Z,13.07
2023-04-22T18:25:42.689Z,12.91
2023-04-22T18:28:10.866Z,12.78
2023-04-22T18:30:38.186Z,12.66
2023-04-22T18:33:05.904Z,12.53
2023-04-22T18:35:35.402Z,12.43
2023-04-22T18:38:03.182Z,12.28
2023-04-22T18:40:30.364Z,12.18
2023-04-22T18:42:57.953Z,12.08
2023-04-22T18:45:25.180Z,11.91
2023-04-22T18:47:52.997Z,11.76
2023-04-22T18:50:21.080Z,11.64
2023-04-22T18:52:48.553Z,11.54
2023-04-22T18:55:15.924Z,11.50
2023-04-22T18:57:43.768Z,11.35
2023-04-22T19:00:13.078Z,11.22
2023-04-22T19:02:42.350Z,11.17
2023-04-22T19:05:10.187Z,11.08
2023-04-22T19:07:38.409Z,11.00
2023-04-22T19:10:07.038Z,10.91
2023-04-22T19:12:34.495Z,10.76
2023-04-22T19:15:02.005Z,10.63
2023-04-22T19:17:29.743Z,10.54
2023-04-22T19:19:57.144Z,10.51
2023-04-22T19:22:24.751Z,10.45
2023-04-22T19:24:52.068Z,10.36
2023-04-22T19:27:19.599Z,10.29
2023-04-22T19:29:51.374Z,10.21
2023-04-22T19:32:19.978Z,10.11
2023-04-22T19:34:47.655Z,9.96
2023-04-22T19:37:15.223Z,9.92
2023-04-22T19:39:42.938Z,9.84
2023-04-22T19:42:10.610Z,9.77
2023-04-22T19:44:37.835Z,9.72
2023-04-22T19:47:05.646Z,9.68
2023-04-22T19:49:33.662Z,9.62
2023-04-22T19:52:02.660Z,9.57
2023-04-22T19:54:30.472Z,9.50
2023-04-22T19:56:58.612Z,9.43
2023-04-22T19:59:28.124Z,9.36
2023-04-22T20:01:55.999Z,9.29
2023-04-22T20:04:23.692Z,9.18
2023-04-22T20:06:51.516Z,9.22
2023-04-22T20:09:19.283Z,9.15
2023-04-22T20:11:46.733Z,9.13
2023-04-22T20:14:14.094Z,9.07
2023-04-22T20:16:42.427Z,9.01
2023-04-22T20:19:11.538Z,8.93
2023-04-22T20:21:40.199Z,8.88
2023-04-22T20:24:07.933Z,8.82
2023-04-22T20:26:35.508Z,8.73
2023-04-22T20:29:03.261Z,8.66
2023-04-22T20:31:31.111Z,8.60
2023-04-22T20:33:58.367Z,8.59
2023-04-22T20:36:26.597Z,8.51
2023-04-22T20:38:55.168Z,8.49
2023-04-22T20:41:24.615Z,8.44
2023-04-22T20:43:52.367Z,8.30
2023-04-22T20:46:22.830Z,8.33
2023-04-22T20:48:50.306Z,8.24
2023-04-22T20:51:17.970Z,8.23
2023-04-22T20:53:45.481Z,8.08
2023-04-22T20:56:13.511Z,8.08
2023-04-22T20:58:40.972Z,8.02
2023-04-22T21:01:09.213Z,7.99
2023-04-22T21:03:39.566Z,7.93
2023-04-22T21:06:08.817Z,7.90
2023-04-22T21:08:36.909Z,7.87
2023-04-22T21:11:04.700Z,7.80
2023-04-22T21:13:32.059Z,7.74
2023-04-22T21:16:02.641Z,7.70
2023-04-22T21:18:32.461Z,7.64
2023-04-22T21:21:02.814Z,7.64
2023-04-22T21:23:30.737Z,7.59
2023-04-22T21:26:01.017Z,7.56
2023-04-22T21:28:29.079Z,7.52
2023-04-22T21:30:56.876Z,7.49
2023-04-22T21:33:25.468Z,7.41
2023-04-22T21:35:53.153Z,7.39
2023-04-22T21:38:20.373Z,7.31
2023-04-22T21:40:47.962Z,7.15
2023-04-22T21:43:15.172Z,7.09
2023-04-22T21:45:42.731Z,7.03
2023-04-22T21:48:10.036Z,7.01
2023-04-22T21:50:37.840Z,7.02
2023-04-22T21:53:05.523Z,7.00
2023-04-22T21:55:32.859Z,6.96
2023-04-22T21:58:00.076Z,6.91
2023-04-22T22:00:27.849Z,6.88
2023-04-22T22:02:55.112Z,6.75
2023-04-22T22:05:22.771Z,6.78
2023-04-22T22:07:50.267Z,6.78
2023-04-22T22:10:22.591Z,6.74
2023-04-22T22:12:50.614Z,6.71
2023-04-22T22:15:18.254Z,6.66
2023-04-22T22:17:46.213Z,6.62
2023-04-22T22:20:20.601Z,6.57
2023-04-22T22:22:48.065Z,6.54
2023-04-22T22:25:16.047Z,6.52
2023-04-22T22:27:45.775Z,6.49
2023-04-22T22:30:13.906Z,6.43
2023-04-22T22:32:41.384Z,6.39
2023-04-22T22:35:09.147Z,6.31
2023-04-22T22:37:37.324Z,6.28
2023-04-22T22:40:05.570Z,6.19
2023-04-22T22:42:32.707Z,6.14
2023-04-22T22:45:00.040Z,6.07
2023-04-22T22:47:27.249Z,6.04
2023-04-22T22:49:56.178Z,6.01
2023-04-22T22:52:23.301Z,6.01
2023-04-22T22:54:50.958Z,5.92
2023-04-22T22:57:18.328Z,5.92
2023-04-22T22:59:46.807Z,5.92
2023-04-22T23:02:14.431Z,5.88
2023-04-22T23:04:42.502Z,5.84
2023-04-22T23:07:10.068Z,5.82
2023-04-22T23:09:37.483Z,5.82
2023-04-22T23:12:05.480Z,5.80
2023-04-22T23:14:33.500Z,5.81
2023-04-22T23:17:00.789Z,5.79
2023-04-22T23:19:28.715Z,5.79
2023-04-22T23:21:56.718Z,5.74
2023-04-22T23:24:24.578Z,5.78
2023-04-22T23:26:51.951Z,5.76
2023-04-22T23:29:19.679Z,5.72
2023-04-22T23:31:47.501Z,5.73
2023-04-22T23:34:15.213Z,5.69
2023-04-22T23:36:42.899Z,5.67
2023-04-22T23:39:10.441Z,5.66
2023-04-22T23:41:37.498Z,5.63
2023-04-22T23:44:05.010Z,5.59
2023-04-22T23:46:32.415Z,5.56
2023-04-22T23:49:01.576Z,5.51
2023-04-22T23:51:29.894Z,5.49
2023-04-22T23:53:57.562Z,5.47
2023-04-22T23:56:25.028Z,5.46
2023-04-22T23:58:53.020Z,5.42
